Time;durP1;ratioP1;P1;durP2;ratioP2;P2;SDS_P1;SDS_P2;PMS_P1;PMS_P2;Temp;Humidity;BMP_temperature;BMP_pressure;BME280_temperature;BME280_humidity;BME280_pressure;Samples;Min_cycle;Max_cycle;Signal;HPM_P1;HPM_P2
2020/12/02 00:00:01;;;;;;;81.40;38.15;;;;;;;-4.15;86.36;99577.63;2163896;81;21158;-78
2020/12/02 00:03:02;;;;;;;66.95;31.45;;;;;;;-4.24;86.16;99581.87;2169313;81;21531;-78
2020/12/02 00:06:04;;;;;;;91.20;41.85;;;;;;;-4.35;86.17;99573.38;2183901;81;21121;-79
2020/12/02 00:09:05;;;;;;;72.08;34.50;;;;;;;-4.40;86.35;99584.23;2179833;81;21563;-79
2020/12/02 00:12:07;;;;;;;69.25;35.30;;;;;;;-4.45;86.42;99580.61;2176878;81;21122;-79
2020/12/02 00:15:08;;;;;;;82.47;40.00;;;;;;;-4.51;86.36;99583.86;2168208;81;21237;-80
2020/12/02 00:18:09;;;;;;;75.97;36.20;;;;;;;-4.57;86.56;99592.62;2159400;81;21112;-79
2020/12/02 00:21:10;;;;;;;82.80;40.05;;;;;;;-4.58;86.84;99587.94;2188111;81;21257;-79
2020/12/02 00:24:12;;;;;;;84.40;38.05;;;;;;;-4.55;86.68;99588.73;2163115;81;21480;-78
2020/12/02 00:27:13;;;;;;;82.45;40.12;;;;;;;-4.54;86.75;99589.11;2157291;81;21728;-78
2020/12/02 00:30:14;;;;;;;85.25;40.70;;;;;;;-4.49;86.83;99584.62;2124817;81;21610;-79
2020/12/02 00:33:16;;;;;;;89.65;39.30;;;;;;;-4.43;86.63;99590.31;2167166;81;21238;-78
2020/12/02 00:36:17;;;;;;;74.95;38.17;;;;;;;-4.43;86.37;99600.98;2158799;81;21698;-79
2020/12/02 00:39:18;;;;;;;90.92;42.38;;;;;;;-4.44;86.61;99595.50;2169904;81;21317;-79
2020/12/02 00:42:19;;;;;;;87.95;40.70;;;;;;;-4.47;86.81;99598.19;2164669;81;21277;-79
2020/12/02 00:45:21;;;;;;;78.83;40.23;;;;;;;-4.45;86.68;99600.23;2183747;81;21175;-79
2020/12/02 00:48:22;;;;;;;86.32;38.53;;;;;;;-4.47;86.49;99599.02;2155145;81;21122;-80
2020/12/02 00:51:24;;;;;;;65.00;34.63;;;;;;;-4.46;86.46;99599.85;2160120;81;21236;-80
2020/12/02 00:54:25;;;;;;;90.55;41.73;;;;;;;-4.44;86.56;99599.33;2141660;82;21548;-80
2020/12/02 00:57:27;;;;;;;83.30;37.48;;;;;;;-4.49;86.66;99599.50;2138011;82;21170;-79
2020/12/02 01:00:28;;;;;;;84.97;39.35;;;;;;;-4.47;86.78;99597.74;2160748;82;21554;-79
2020/12/02 01:03:29;;;;;;;86.50;39.92;;;;;;;-4.44;86.79;99600.16;2136717;82;21135;-79
2020/12/02 01:06:32;;;;;;;76.70;33.78;;;;;;;-4.45;86.60;99597.22;2149219;82;21134;-79
2020/12/02 01:09:34;;;;;;;78.20;39.63;;;;;;;-4.52;86.36;99598.81;2120268;82;21284;-80
2020/12/02 01:12:35;;;;;;;81.42;36.30;;;;;;;-4.64;86.38;99597.16;2093274;82;21159;-79
2020/12/02 01:15:36;;;;;;;82.35;38.60;;;;;;;-4.70;86.66;99599.95;2109231;83;21603;-79
2020/12/02 01:18:38;;;;;;;88.97;39.90;;;;;;;-4.76;86.73;99606.58;2138026;83;21135;-79
2020/12/02 01:21:42;;;;;;;59.98;28.65;;;;;;;-4.81;86.76;99592.34;2138892;82;21142;-79
2020/12/02 01:24:43;;;;;;;75.32;36.03;;;;;;;-4.84;86.79;99596.31;2127507;83;21289;-79
2020/12/02 01:27:44;;;;;;;79.65;37.28;;;;;;;-4.91;87.01;99591.88;2131434;82;21280;-79
2020/12/02 01:30:46;;;;;;;76.47;38.00;;;;;;;-4.93;86.99;99590.67;2113702;83;21134;-78
2020/12/02 01:33:47;;;;;;;92.55;43.65;;;;;;;-4.91;86.98;99596.98;2149995;82;21186;-79
2020/12/02 01:36:48;;;;;;;72.55;36.00;;;;;;;-4.88;87.06;99586.64;2114200;83;21268;-79
2020/12/02 01:39:50;;;;;;;79.60;40.67;;;;;;;-4.85;87.08;99591.61;2092398;84;21152;-79
2020/12/02 01:42:51;;;;;;;78.55;35.20;;;;;;;-4.84;87.12;99592.03;2145117;82;21155;-79
2020/12/02 01:45:52;;;;;;;76.28;35.98;;;;;;;-4.88;86.89;99587.91;2137757;82;21237;-79
2020/12/02 01:48:53;;;;;;;81.02;36.00;;;;;;;-4.93;87.03;99593.67;2167961;82;22015;-79
2020/12/02 01:51:55;;;;;;;76.12;37.75;;;;;;;-4.98;86.96;99599.39;2154847;80;21119;-79
2020/12/02 01:54:57;;;;;;;79.32;36.00;;;;;;;-4.97;87.27;99593.39;2192318;80;21121;-79
2020/12/02 01:57:59;;;;;;;69.82;36.10;;;;;;;-4.91;87.28;99593.98;2197095;80;21305;-78
2020/12/02 02:01:01;;;;;;;87.30;41.10;;;;;;;-4.83;87.41;99587.30;2179435;80;21297;-78
2020/12/02 02:04:02;;;;;;;69.90;35.30;;;;;;;-4.78;87.22;99595.59;2154035;81;21559;-79
2020/12/02 02:07:04;;;;;;;76.37;35.30;;;;;;;-4.73;87.23;99596.25;2171254;82;21228;-79
2020/12/02 02:10:06;;;;;;;80.62;35.08;;;;;;;-4.63;87.31;99594.15;2179806;80;21124;-78
2020/12/02 02:13:07;;;;;;;60.55;29.90;;;;;;;-4.52;87.43;99592.42;2170075;81;21714;-79
2020/12/02 02:16:08;;;;;;;76.12;34.92;;;;;;;-4.45;87.34;99591.28;2164118;82;21543;-79
2020/12/02 02:19:10;;;;;;;70.30;34.10;;;;;;;-4.40;87.33;99590.63;2204272;80;21159;-79
2020/12/02 02:22:11;;;;;;;76.05;33.70;;;;;;;-4.34;87.14;99583.53;2202217;80;21512;-78
2020/12/02 02:25:13;;;;;;;71.90;33.65;;;;;;;-4.26;87.42;99587.05;2195367;80;21277;-79
2020/12/02 02:28:14;;;;;;;74.45;34.60;;;;;;;-4.15;87.59;99591.25;2194363;80;21571;-79
2020/12/02 02:31:15;;;;;;;83.30;39.67;;;;;;;-4.09;87.91;99598.67;2191772;80;21297;-79
2020/12/02 02:34:17;;;;;;;65.37;30.90;;;;;;;-4.02;88.24;99589.02;2205852;80;21299;-79
2020/12/02 02:37:19;;;;;;;81.63;38.23;;;;;;;-3.94;88.43;99586.09;2187179;80;21580;-78
2020/12/02 02:40:20;;;;;;;74.12;34.80;;;;;;;-3.88;88.41;99587.11;2184280;80;21112;-79
2020/12/02 02:43:22;;;;;;;68.12;30.60;;;;;;;-3.82;88.32;99574.89;2187034;80;21246;-79
2020/12/02 02:46:23;;;;;;;66.72;32.60;;;;;;;-3.75;88.88;99575.00;2186686;80;21132;-78
2020/12/02 02:49:25;;;;;;;61.90;28.12;;;;;;;-3.68;88.31;99579.38;2188814;80;21135;-79
2020/12/02 02:52:26;;;;;;;69.95;33.30;;;;;;;-3.62;88.24;99574.44;2160607;80;21264;-79
2020/12/02 02:55:28;;;;;;;71.97;33.48;;;;;;;-3.60;88.01;99578.58;2159570;82;21103;-79
2020/12/02 02:58:29;;;;;;;63.75;31.87;;;;;;;-3.54;88.31;99574.92;2240538;79;21599;-79
2020/12/02 03:01:31;;;;;;;61.23;30.30;;;;;;;-3.51;88.27;99573.50;2222781;79;21226;-78
2020/12/02 03:04:32;;;;;;;67.70;32.78;;;;;;;-3.50;87.88;99582.38;2243214;79;21654;-79
2020/12/02 03:07:34;;;;;;;69.55;31.62;;;;;;;-3.47;87.84;99587.84;2242269;79;21258;-79
2020/12/02 03:10:35;;;;;;;62.20;31.20;;;;;;;-3.44;87.74;99588.97;2243982;79;21222;-80
2020/12/02 03:13:36;;;;;;;53.92;28.25;;;;;;;-3.41;87.77;99577.74;2238768;79;21265;-79
2020/12/02 03:16:37;;;;;;;63.95;28.32;;;;;;;-3.37;87.57;99585.68;2232467;79;21675;-79
2020/12/02 03:19:39;;;;;;;56.88;28.15;;;;;;;-3.36;87.46;99583.50;2254037;78;21257;-78
2020/12/02 03:22:40;;;;;;;60.28;29.42;;;;;;;-3.35;87.42;99580.86;2232193;79;21269;-79
2020/12/02 03:25:41;;;;;;;56.35;26.65;;;;;;;-3.34;87.36;99585.08;2251913;78;21245;-78
2020/12/02 03:28:42;;;;;;;57.33;27.00;;;;;;;-3.31;87.35;99570.01;2239162;78;21222;-79
2020/12/02 03:31:43;;;;;;;72.10;30.30;;;;;;;-3.31;87.31;99580.25;2225064;79;21250;-78
2020/12/02 03:34:45;;;;;;;66.77;29.02;;;;;;;-3.33;87.36;99580.33;2227240;79;21269;-79
2020/12/02 03:37:46;;;;;;;57.98;27.95;;;;;;;-3.34;87.37;99579.95;2224744;79;21084;-78
2020/12/02 03:40:47;;;;;;;67.53;32.30;;;;;;;-3.36;87.34;99583.50;2177143;80;21170;-79
2020/12/02 03:43:48;;;;;;;63.00;28.70;;;;;;;-3.35;87.49;99592.38;2235489;79;21662;-79
2020/12/02 03:46:50;;;;;;;55.63;29.02;;;;;;;-3.35;87.72;99580.86;2224466;79;22198;-78
2020/12/02 03:49:51;;;;;;;66.60;30.35;;;;;;;-3.45;87.53;99582.19;2223136;79;21137;-78
2020/12/02 03:52:52;;;;;;;65.15;29.67;;;;;;;-3.47;87.99;99586.55;2244553;78;21233;-79
2020/12/02 03:55:53;;;;;;;63.68;29.25;;;;;;;-3.46;87.92;99576.69;2218910;79;21250;-79
2020/12/02 03:58:54;;;;;;;64.17;29.50;;;;;;;-3.44;87.78;99588.52;2222901;79;21102;-80
2020/12/02 04:01:55;;;;;;;60.33;27.48;;;;;;;-3.38;87.71;99590.39;2237761;79;21257;-78
2020/12/02 04:04:56;;;;;;;67.50;33.13;;;;;;;-3.35;87.70;99596.68;2224422;79;21072;-79
2020/12/02 04:07:58;;;;;;;56.25;26.17;;;;;;;-3.39;87.79;99596.42;2222843;79;21139;-78
2020/12/02 04:10:59;;;;;;;52.62;25.17;;;;;;;-3.47;87.67;99591.22;2194343;80;21191;-78
2020/12/02 04:14:00;;;;;;;59.25;29.37;;;;;;;-3.54;87.93;99600.08;2247777;79;21237;-79
2020/12/02 04:17:01;;;;;;;57.62;26.68;;;;;;;-3.59;88.01;99601.17;2222007;79;21249;-79
2020/12/02 04:20:02;;;;;;;49.48;23.20;;;;;;;-3.61;87.94;99599.14;2219341;79;21092;-80
2020/12/02 04:23:04;;;;;;;47.50;24.70;;;;;;;-3.63;88.18;99595.83;2226144;79;21218;-79
2020/12/02 04:26:05;;;;;;;56.68;27.75;;;;;;;-3.65;88.30;99605.31;2224813;79;21539;-79
2020/12/02 04:29:06;;;;;;;52.30;24.23;;;;;;;-3.66;88.04;99612.13;2244427;79;21535;-79
2020/12/02 04:32:08;;;;;;;50.63;24.50;;;;;;;-3.62;88.53;99603.43;2227361;79;21118;-79
2020/12/02 04:35:09;;;;;;;50.70;27.27;;;;;;;-3.61;88.32;99609.38;2235981;79;21736;-78
2020/12/02 04:38:11;;;;;;;49.85;24.30;;;;;;;-3.63;88.47;99620.97;2237921;79;21107;-78
2020/12/02 04:41:13;;;;;;;50.23;24.50;;;;;;;-3.62;88.25;99617.51;2222022;79;21527;-79
2020/12/02 04:44:14;;;;;;;50.40;25.12;;;;;;;-3.61;87.98;99629.41;2221439;79;22034;-78
2020/12/02 04:47:15;;;;;;;56.92;30.48;;;;;;;-3.64;88.28;99625.72;2212763;79;21312;-79
2020/12/02 04:50:17;;;;;;;50.25;27.62;;;;;;;-3.65;88.32;99607.87;2191875;80;21305;-79
2020/12/02 04:53:18;;;;;;;47.27;23.27;;;;;;;-3.68;88.20;99616.94;2220520;79;21642;-79
2020/12/02 04:56:21;;;;;;;51.10;23.77;;;;;;;-3.68;88.14;99621.61;2230074;78;21120;-79
2020/12/02 04:59:22;;;;;;;48.33;24.75;;;;;;;-3.72;88.55;99614.98;2233983;78;21255;-79
2020/12/02 05:02:24;;;;;;;46.30;23.12;;;;;;;-3.70;88.50;99623.87;2239714;78;21274;-78
2020/12/02 05:05:26;;;;;;;36.65;16.50;;;;;;;-3.67;88.56;99616.05;2229805;78;21658;-79
2020/12/02 05:08:27;;;;;;;42.75;22.15;;;;;;;-3.68;88.20;99621.61;2229336;78;21240;-78
2020/12/02 05:11:28;;;;;;;46.90;25.10;;;;;;;-3.68;88.24;99621.61;2229158;78;21238;-78
2020/12/02 05:14:30;;;;;;;54.58;24.55;;;;;;;-3.65;88.30;99633.02;2229405;78;21289;-78
2020/12/02 05:17:31;;;;;;;42.45;22.52;;;;;;;-3.66;87.98;99628.77;2230636;78;21246;-79
2020/12/02 05:20:32;;;;;;;52.90;26.50;;;;;;;-3.60;88.22;99618.72;2241908;78;21689;-79
2020/12/02 05:23:33;;;;;;;43.02;22.10;;;;;;;-3.53;88.14;99618.38;2238474;78;21539;-78
2020/12/02 05:26:34;;;;;;;51.20;26.93;;;;;;;-3.53;88.08;99617.55;2229654;78;21711;-79
2020/12/02 05:29:36;;;;;;;46.65;22.60;;;;;;;-3.51;87.86;99619.58;2241421;78;21112;-84
2020/12/02 05:32:37;;;;;;;53.75;27.37;;;;;;;-3.55;87.80;99618.91;2249525;78;21071;-84
2020/12/02 05:35:38;;;;;;;46.40;25.70;;;;;;;-3.51;87.94;99624.70;2265858;78;21221;-84
2020/12/02 05:38:40;;;;;;;54.90;27.73;;;;;;;-3.42;87.95;99624.74;2229416;78;21714;-83
2020/12/02 05:41:42;;;;;;;57.88;28.65;;;;;;;-3.38;87.83;99623.27;2230573;78;21548;-82
2020/12/02 05:44:44;;;;;;;45.83;24.02;;;;;;;-3.37;87.64;99613.41;2234288;78;21690;-83
2020/12/02 05:47:45;;;;;;;47.13;23.60;;;;;;;-3.37;87.51;99634.34;2246173;78;21135;-83
2020/12/02 05:50:46;;;;;;;38.25;19.95;;;;;;;-3.43;87.51;99627.75;2231358;78;21152;-83
2020/12/02 05:53:48;;;;;;;46.42;23.57;;;;;;;-3.48;87.68;99622.83;2254741;78;21298;-82
2020/12/02 05:56:49;;;;;;;45.88;23.40;;;;;;;-3.52;87.91;99616.64;2249842;78;21548;-82
2020/12/02 05:59:50;;;;;;;44.95;24.00;;;;;;;-3.57;87.70;99619.84;2246415;79;21286;-80
2020/12/02 06:02:52;;;;;;;52.27;27.17;;;;;;;-3.61;88.19;99624.28;2232866;79;21223;-82
2020/12/02 06:05:53;;;;;;;51.37;25.35;;;;;;;-3.57;88.16;99625.80;2217826;79;21131;-82
2020/12/02 06:08:54;;;;;;;51.08;26.02;;;;;;;-3.46;88.19;99624.06;2180168;80;21144;-83
2020/12/02 06:11:55;;;;;;;53.52;25.95;;;;;;;-3.40;88.07;99631.90;2184357;81;21123;-83
2020/12/02 06:14:58;;;;;;;53.10;27.42;;;;;;;-3.33;88.01;99631.55;2188868;81;21134;-82
2020/12/02 06:17:59;;;;;;;45.88;21.95;;;;;;;-3.25;87.82;99629.93;2192033;80;21278;-82
2020/12/02 06:24:41;;;;;;;45.98;26.60;;;;;;;-3.19;87.58;99626.64;2063815;86;21176;-83
2020/12/02 06:27:43;;;;;;;55.17;29.60;;;;;;;-3.10;87.57;99627.13;2158654;81;21260;-87
2020/12/02 06:30:44;;;;;;;44.63;22.85;;;;;;;-3.02;87.58;99625.00;2165784;81;21615;-81
2020/12/02 06:33:46;;;;;;;44.00;22.42;;;;;;;-2.97;86.93;99626.46;2177651;81;21288;-85
2020/12/02 06:36:47;;;;;;;45.50;22.90;;;;;;;-2.97;86.43;99630.76;2172197;81;21539;-86
2020/12/02 06:39:48;;;;;;;41.45;21.57;;;;;;;-3.02;86.45;99625.00;2173821;81;21105;-86
2020/12/02 06:42:52;;;;;;;47.78;25.35;;;;;;;-3.04;86.54;99633.22;2179394;81;21124;-81
2020/12/02 06:45:54;;;;;;;48.02;23.67;;;;;;;-3.09;86.48;99626.22;2157300;81;21146;-85
2020/12/02 06:48:56;;;;;;;47.33;23.83;;;;;;;-3.15;86.64;99615.34;2148809;81;21540;-85
2020/12/02 06:51:57;;;;;;;51.50;26.00;;;;;;;-3.12;86.86;99622.05;2187133;80;21339;-80
2020/12/02 06:55:00;;;;;;;52.67;27.60;;;;;;;-3.08;86.83;99621.47;2165630;81;21122;-86
2020/12/02 06:58:01;;;;;;;44.80;21.42;;;;;;;-3.02;86.81;99626.28;2176965;81;21583;-82
2020/12/02 07:01:03;;;;;;;39.20;20.95;;;;;;;-3.07;86.37;99633.38;2162859;81;21174;-83
2020/12/02 07:04:05;;;;;;;47.10;23.27;;;;;;;-3.11;86.41;99631.39;2136443;81;21150;-81
2020/12/02 07:07:08;;;;;;;37.70;19.05;;;;;;;-3.08;86.53;99626.14;2176374;81;21250;-88
2020/12/02 07:14:02;;;;;;;46.53;25.48;;;;;;;-3.09;86.45;99635.19;2147700;81;21169;-83
2020/12/02 07:35:23;;;;;;;44.35;22.37;;;;;;;-2.83;85.14;99631.38;1953908;85;21215;-85
2020/12/02 07:38:27;;;;;;;42.88;21.68;;;;;;;-2.84;85.70;99638.23;2093292;79;21322;-84
2020/12/02 07:41:29;;;;;;;39.67;21.42;;;;;;;-2.86;85.51;99632.36;2227451;79;21290;-84
2020/12/02 07:44:33;;;;;;;48.17;23.00;;;;;;;-2.82;85.79;99629.22;2241199;79;21684;-83
2020/12/02 07:47:39;;;;;;;36.53;17.23;;;;;;;-2.83;85.93;99623.27;2246852;79;21152;-84
2020/12/02 07:50:47;;;;;;;50.25;24.37;;;;;;;-2.82;85.66;99621.52;2244232;79;21293;-83
2020/12/02 07:53:50;;;;;;;50.95;26.02;;;;;;;-2.78;86.01;99632.83;2254725;78;21591;-84
2020/12/02 07:57:00;;;;;;;54.77;27.10;;;;;;;-2.70;86.16;99624.77;2245224;78;21679;-84
2020/12/02 08:00:03;;;;;;;47.33;24.98;;;;;;;-2.64;86.17;99627.05;2253230;79;21162;-84
2020/12/02 08:03:07;;;;;;;46.48;25.72;;;;;;;-2.59;85.64;99622.05;2253891;79;21142;-85
2020/12/02 08:06:16;;;;;;;55.60;29.30;;;;;;;-2.51;85.76;99638.36;2210510;79;21544;-85
2020/12/02 08:09:26;;;;;;;46.75;25.57;;;;;;;-2.48;85.78;99633.07;2239004;79;21650;-85
2020/12/02 08:12:36;;;;;;;50.55;25.30;;;;;;;-2.48;85.69;99625.83;2265265;79;21574;-84
2020/12/02 08:15:42;;;;;;;44.10;23.18;;;;;;;-2.42;85.70;99628.11;2255118;78;21662;-86
2020/12/02 08:18:49;;;;;;;44.45;23.57;;;;;;;-2.43;84.95;99629.84;2249376;79;21262;-86
2020/12/02 08:21:55;;;;;;;45.43;24.00;;;;;;;-2.51;84.44;99634.52;2251371;78;21107;-87
2020/12/02 08:24:57;;;;;;;42.43;24.35;;;;;;;-2.54;84.83;99632.56;2225893;79;21246;-84
2020/12/02 08:28:09;;;;;;;46.13;24.52;;;;;;;-2.62;85.24;99635.04;2225664;79;21709;-87
2020/12/02 08:31:21;;;;;;;40.60;20.23;;;;;;;-2.69;85.29;99629.82;2244260;79;21697;-84
2020/12/02 08:34:28;;;;;;;43.42;21.87;;;;;;;-2.67;85.42;99634.42;2151272;82;21133;-84
2020/12/02 08:41:20;;;;;;;43.92;22.45;;;;;;;-2.63;85.50;99633.84;2135805;81;21171;-85
2020/12/02 08:44:23;;;;;;;39.55;20.85;;;;;;;-2.58;85.19;99630.58;2178783;81;21170;-84
2020/12/02 08:47:26;;;;;;;29.87;15.55;;;;;;;-2.55;84.87;99634.30;2159759;81;21524;-84
2020/12/02 08:50:28;;;;;;;33.23;16.62;;;;;;;-2.57;84.25;99630.50;2175533;81;21146;-84
2020/12/02 08:53:30;;;;;;;41.18;23.20;;;;;;;-2.55;84.66;99619.36;2187450;80;21292;-84
2020/12/02 08:56:33;;;;;;;34.43;18.35;;;;;;;-2.57;84.42;99630.50;2162292;81;21295;-85
2020/12/02 08:59:39;;;;;;;41.75;21.23;;;;;;;-2.61;84.17;99622.59;2167122;81;21265;-85
2020/12/02 09:02:45;;;;;;;47.30;24.15;;;;;;;-2.69;84.34;99620.84;2163700;81;21766;-85
2020/12/02 09:05:55;;;;;;;43.10;25.30;;;;;;;-2.68;84.72;99613.98;2228304;79;21283;-89
2020/12/02 09:08:57;;;;;;;45.52;22.70;;;;;;;-2.58;84.72;99622.43;2222086;79;21250;-85
2020/12/02 09:12:02;;;;;;;40.30;22.40;;;;;;;-2.51;84.44;99619.58;2220404;79;21163;-84
2020/12/02 09:15:05;;;;;;;42.70;22.98;;;;;;;-2.61;83.83;99612.34;2222172;79;21662;-84
2020/12/02 09:18:09;;;;;;;47.03;24.50;;;;;;;-2.60;83.99;99608.03;2227466;78;21698;-84
2020/12/02 09:21:11;;;;;;;45.08;24.60;;;;;;;-2.53;84.62;99609.85;2215734;79;21678;-83
2020/12/02 09:24:17;;;;;;;43.65;25.60;;;;;;;-2.46;84.79;99609.48;2193382;80;21562;-84
2020/12/02 09:27:19;;;;;;;40.17;22.00;;;;;;;-2.40;84.64;99609.61;2190003;80;21151;-85
2020/12/02 09:30:23;;;;;;;36.30;22.90;;;;;;;-2.32;84.57;99604.94;2157636;82;21127;-83
2020/12/02 09:36:38;;;;;;;34.65;19.00;;;;;;;-2.42;83.81;99594.30;2198930;79;22969;-84
2020/12/02 09:39:40;;;;;;;36.68;22.62;;;;;;;-2.49;83.49;99589.55;2171638;82;21155;-87
2020/12/02 09:42:42;;;;;;;44.85;24.63;;;;;;;-2.51;83.08;99584.50;2157503;82;21277;-86
2020/12/02 09:45:51;;;;;;;37.88;21.87;;;;;;;-2.49;83.65;99582.69;2153600;81;21241;-83
2020/12/02 09:48:53;;;;;;;39.33;22.45;;;;;;;-2.39;84.15;99582.59;2146564;82;21123;-83
2020/12/02 09:51:58;;;;;;;36.05;19.95;;;;;;;-2.29;83.17;99585.53;2119989;82;21569;-83
2020/12/02 09:58:38;;;;;;;35.80;20.08;;;;;;;-2.12;83.39;99569.28;2143710;82;21093;-84
2020/12/02 10:01:44;;;;;;;32.63;17.62;;;;;;;-1.98;82.75;99565.56;2130495;82;21558;-80
2020/12/02 10:04:46;;;;;;;33.90;20.10;;;;;;;-1.90;82.77;99558.75;2152039;82;21120;-80
2020/12/02 10:07:48;;;;;;;35.50;20.15;;;;;;;-1.86;82.22;99554.64;2155619;82;21276;-81
2020/12/02 10:10:53;;;;;;;35.92;20.77;;;;;;;-1.88;82.29;99546.20;2141674;82;21575;-79
2020/12/02 10:13:55;;;;;;;36.35;21.68;;;;;;;-1.87;82.10;99551.70;2156179;80;21309;-81
2020/12/02 10:16:58;;;;;;;35.03;20.37;;;;;;;-1.82;82.46;99547.17;2155028;82;21211;-86
2020/12/02 10:20:00;;;;;;;36.63;20.57;;;;;;;-1.77;82.36;99542.59;2122506;82;21596;-81
2020/12/02 10:23:06;;;;;;;39.27;23.12;;;;;;;-1.75;82.24;99530.95;2130207;82;21301;-83
2020/12/02 10:26:10;;;;;;;38.25;21.05;;;;;;;-1.72;82.14;99535.95;2138558;82;21568;-81
2020/12/02 10:29:11;;;;;;;37.63;21.50;;;;;;;-1.80;81.54;99532.95;2150547;82;21538;-80
2020/12/02 10:32:13;;;;;;;42.93;23.07;;;;;;;-1.85;81.55;99529.80;2157804;81;21128;-81
2020/12/02 10:35:15;;;;;;;39.75;21.70;;;;;;;-1.89;81.83;99524.00;2131689;82;21533;-85
2020/12/02 10:38:16;;;;;;;39.08;23.50;;;;;;;-1.87;82.07;99522.18;2125756;82;21260;-83
2020/12/02 10:41:19;;;;;;;36.83;21.73;;;;;;;-1.83;81.87;99526.26;2134563;82;21323;-81
2020/12/02 10:44:21;;;;;;;33.23;19.27;;;;;;;-1.82;81.52;99523.23;2133538;82;21132;-80
2020/12/02 10:47:23;;;;;;;40.08;23.52;;;;;;;-1.80;81.51;99520.95;2149025;82;21251;-79
2020/12/02 10:54:04;;;;;;;40.95;23.12;;;;;;;-1.77;81.08;99518.66;2133109;82;21479;-80
2020/12/02 10:57:06;;;;;;;40.08;22.07;;;;;;;-1.77;81.40;99514.36;2136727;82;21549;-80
2020/12/02 11:00:08;;;;;;;38.83;22.65;;;;;;;-1.73;81.38;99510.73;2117659;82;21327;-82
2020/12/02 11:03:10;;;;;;;39.92;23.18;;;;;;;-1.73;81.04;99504.31;2142226;82;21281;-81
2020/12/02 11:06:11;;;;;;;37.60;22.00;;;;;;;-1.69;81.12;99502.85;2121325;82;21142;-81
2020/12/02 11:09:13;;;;;;;40.00;23.75;;;;;;;-1.67;81.32;99504.41;2150219;82;21287;-79
2020/12/02 11:12:16;;;;;;;38.80;23.30;;;;;;;-1.66;81.09;99501.39;2144376;82;21433;-79
2020/12/02 11:15:17;;;;;;;34.70;20.10;;;;;;;-1.62;81.19;99496.02;2142246;82;21698;-80
2020/12/02 11:18:18;;;;;;;39.85;22.35;;;;;;;-1.59;80.85;99500.98;2144701;82;21112;-80
2020/12/02 11:21:23;;;;;;;43.63;23.05;;;;;;;-1.58;80.98;99495.38;2150958;82;21268;-80
2020/12/02 11:24:24;;;;;;;37.78;22.22;;;;;;;-1.56;81.10;99494.38;2152454;82;21280;-81
2020/12/02 11:27:26;;;;;;;38.28;20.80;;;;;;;-1.54;80.61;99490.01;2142047;82;21111;-81
2020/12/02 11:30:27;;;;;;;40.75;23.25;;;;;;;-1.50;80.71;99481.20;2141687;82;21333;-80
2020/12/02 11:33:28;;;;;;;44.23;25.02;;;;;;;-1.48;80.59;99482.41;2136503;82;21144;-79
2020/12/02 11:36:30;;;;;;;38.17;23.77;;;;;;;-1.48;79.80;99482.41;2128370;82;21143;-81
2020/12/02 11:39:31;;;;;;;41.37;24.30;;;;;;;-1.50;80.77;99477.81;2126190;82;21159;-81
2020/12/02 11:42:33;;;;;;;32.10;18.70;;;;;;;-1.49;80.75;99479.00;2136462;82;21120;-81
2020/12/02 11:45:34;;;;;;;45.25;24.90;;;;;;;-1.53;80.26;99476.70;2123573;82;21272;-81
2020/12/02 11:48:36;;;;;;;42.38;25.00;;;;;;;-1.58;80.70;99475.66;2133113;82;21127;-80
2020/12/02 11:51:37;;;;;;;39.63;22.75;;;;;;;-1.56;80.85;99468.69;2114298;82;21172;-82
2020/12/02 11:54:39;;;;;;;40.45;22.30;;;;;;;-1.56;80.53;99469.98;2141939;82;21743;-82
2020/12/02 11:57:41;;;;;;;38.50;23.57;;;;;;;-1.56;80.68;99473.83;2122686;82;21131;-80
2020/12/02 12:00:42;;;;;;;34.23;20.55;;;;;;;-1.73;79.86;99463.69;2115804;82;21191;-81
2020/12/02 12:03:43;;;;;;;36.13;21.80;;;;;;;-1.85;79.93;99469.01;2116765;82;21157;-80
2020/12/02 12:06:45;;;;;;;39.20;22.62;;;;;;;-1.96;80.18;99464.09;2145310;82;21311;-80
2020/12/02 12:09:46;;;;;;;33.90;21.82;;;;;;;-2.02;80.40;99459.64;2128178;82;21718;-81
2020/12/02 12:12:48;;;;;;;38.45;20.92;;;;;;;-2.03;80.70;99454.59;2131483;82;21270;-80
2020/12/02 12:15:50;;;;;;;39.65;23.18;;;;;;;-2.10;80.07;99452.01;2106360;82;21142;-81
2020/12/02 12:18:54;;;;;;;36.93;22.00;;;;;;;-2.16;80.52;99444.63;2135569;82;21715;-81
2020/12/02 12:21:57;;;;;;;35.92;22.37;;;;;;;-2.12;80.78;99435.84;2136773;82;21293;-82
2020/12/02 12:24:59;;;;;;;35.23;20.37;;;;;;;-2.14;80.81;99442.34;2109619;82;21139;-82
2020/12/02 12:28:00;;;;;;;36.45;21.95;;;;;;;-2.14;81.11;99444.08;2141989;82;21318;-79
2020/12/02 12:31:01;;;;;;;37.85;21.40;;;;;;;-2.13;80.77;99445.73;2142193;82;21295;-79
2020/12/02 12:34:04;;;;;;;33.75;21.65;;;;;;;-2.21;80.51;99435.05;2144779;82;21191;-80
2020/12/02 12:37:05;;;;;;;30.00;18.27;;;;;;;-2.26;80.07;99435.30;2142065;82;21291;-80
2020/12/02 12:40:06;;;;;;;39.48;23.87;;;;;;;-2.22;80.58;99439.81;2139603;82;21152;-80
2020/12/02 12:43:08;;;;;;;43.80;24.75;;;;;;;-2.20;80.74;99431.11;2145427;82;21692;-79
2020/12/02 12:46:09;;;;;;;38.50;21.57;;;;;;;-2.11;81.19;99422.92;2142001;82;21114;-79
2020/12/02 12:49:10;;;;;;;37.53;19.98;;;;;;;-1.98;81.27;99429.98;2128458;82;21318;-78
2020/12/02 12:52:11;;;;;;;36.80;23.27;;;;;;;-1.91;79.84;99419.76;2131549;82;21279;-78
2020/12/02 12:55:14;;;;;;;38.70;22.15;;;;;;;-1.89;80.51;99421.32;2141440;82;21153;-80
2020/12/02 12:58:15;;;;;;;38.53;21.23;;;;;;;-1.82;80.24;99418.80;2124070;82;21173;-79
2020/12/02 13:01:17;;;;;;;36.28;21.87;;;;;;;-1.74;80.20;99411.92;2149736;82;21291;-78
2020/12/02 13:04:19;;;;;;;36.25;20.60;;;;;;;-1.73;79.87;99410.59;2150919;82;21295;-79
2020/12/02 13:07:21;;;;;;;38.05;22.27;;;;;;;-1.66;79.48;99412.34;2141781;82;21263;-82
2020/12/02 13:10:23;;;;;;;38.83;21.48;;;;;;;-1.69;79.62;99398.39;2153095;82;21770;-81
2020/12/02 13:13:24;;;;;;;32.05;19.92;;;;;;;-1.66;79.36;99396.92;2147604;82;21306;-83
2020/12/02 13:16:26;;;;;;;39.70;22.90;;;;;;;-1.73;78.51;99393.07;2152043;82;21541;-81
2020/12/02 13:19:27;;;;;;;38.53;21.62;;;;;;;-1.77;79.39;99392.39;2105389;82;21203;-80
2020/12/02 13:22:28;;;;;;;36.95;22.05;;;;;;;-1.74;79.35;99387.11;2143697;82;21109;-81
2020/12/02 13:25:29;;;;;;;40.25;23.18;;;;;;;-1.72;79.39;99390.87;2152559;82;21732;-81
2020/12/02 13:28:31;;;;;;;38.95;22.52;;;;;;;-1.73;79.39;99390.50;2139579;82;21264;-81
2020/12/02 13:31:32;;;;;;;41.88;22.85;;;;;;;-1.71;79.36;99389.95;2123757;82;21161;-81
2020/12/02 13:34:33;;;;;;;45.65;25.20;;;;;;;-1.70;79.09;99386.47;2133732;82;21713;-82
2020/12/02 13:37:34;;;;;;;34.35;22.32;;;;;;;-1.72;79.43;99384.45;2134723;82;21158;-82
2020/12/02 13:40:36;;;;;;;42.58;25.23;;;;;;;-1.72;79.00;99376.75;2150451;81;21145;-82
2020/12/02 13:43:37;;;;;;;45.73;26.85;;;;;;;-1.80;79.28;99378.45;2121133;82;21637;-81
2020/12/02 13:46:38;;;;;;;46.65;28.20;;;;;;;-1.91;79.07;99366.67;2123607;82;21155;-83
2020/12/02 13:49:39;;;;;;;42.17;23.75;;;;;;;-1.91;79.51;99363.28;2123628;82;21089;-83
2020/12/02 13:52:41;;;;;;;31.57;19.07;;;;;;;-2.04;78.45;99367.80;2136720;82;21153;-82
2020/12/02 13:55:42;;;;;;;27.13;15.65;;;;;;;-2.22;78.47;99370.53;2151730;82;21153;-83
2020/12/02 13:58:43;;;;;;;35.85;21.73;;;;;;;-2.35;78.71;99366.53;2108504;82;21156;-82
2020/12/02 14:01:45;;;;;;;35.00;21.07;;;;;;;-2.41;79.47;99358.70;2138152;82;21124;-82
2020/12/02 14:04:47;;;;;;;37.75;20.70;;;;;;;-2.39;79.30;99362.00;2126062;82;21107;-81
2020/12/02 14:07:48;;;;;;;33.10;18.07;;;;;;;-2.43;79.21;99354.57;2113760;82;21139;-82
2020/12/02 14:10:50;;;;;;;39.98;22.10;;;;;;;-2.44;79.07;99343.48;2151592;82;21276;-82
2020/12/02 14:13:51;;;;;;;37.55;23.35;;;;;;;-2.41;79.65;99349.72;2147329;82;21695;-82
2020/12/02 14:16:53;;;;;;;33.67;19.52;;;;;;;-2.46;79.55;99332.95;2134950;82;21160;-82
2020/12/02 14:19:55;;;;;;;36.33;21.65;;;;;;;-2.47;79.56;99339.81;2142002;82;21145;-83
2020/12/02 14:22:56;;;;;;;35.80;21.68;;;;;;;-2.53;79.95;99337.57;2151341;82;21092;-83
2020/12/02 14:25:58;;;;;;;40.78;23.10;;;;;;;-2.58;80.10;99340.36;2110024;82;21191;-82
2020/12/02 14:28:59;;;;;;;35.63;21.25;;;;;;;-2.69;80.03;99342.67;2113692;82;21697;-82
2020/12/02 14:32:00;;;;;;;34.18;18.50;;;;;;;-2.72;80.38;99342.84;2114654;82;21152;-82
2020/12/02 14:35:02;;;;;;;30.12;17.45;;;;;;;-2.77;80.20;99338.40;2128116;82;21132;-82